地図

経路データ

SID SEASON NUMBER BASIN SUBBASIN NAME ISO_TIME NATURE LAT LON WMO_WIND WMO_PRES WMO_AGENCY TRACK_TYPE DIST2LAND LANDFALL IFLAG USA_AGENCY USA_ATCF_ID USA_LAT USA_LON USA_RECORD USA_STATUS USA_WIND USA_PRES USA_SSHS USA_R34_NE USA_R34_SE USA_R34_SW USA_R34_NW USA_R50_NE USA_R50_SE USA_R50_SW USA_R50_NW USA_R64_NE USA_R64_SE USA_R64_SW USA_R64_NW USA_POCI USA_ROCI USA_RMW USA_EYE TOKYO_LAT TOKYO_LON TOKYO_GRADE TOKYO_WIND TOKYO_PRES TOKYO_R50_DIR TOKYO_R50_LONG TOKYO_R50_SHORT TOKYO_R30_DIR TOKYO_R30_LONG TOKYO_R30_SHORT TOKYO_LAND CMA_LAT CMA_LON CMA_CAT CMA_WIND CMA_PRES HKO_LAT HKO_LON HKO_CAT HKO_WIND HKO_PRES NEWDELHI_LAT NEWDELHI_LON NEWDELHI_GRADE NEWDELHI_WIND NEWDELHI_PRES NEWDELHI_CI NEWDELHI_DP NEWDELHI_POCI REUNION_LAT REUNION_LON REUNION_TYPE REUNION_WIND REUNION_PRES REUNION_TNUM REUNION_CI REUNION_RMW REUNION_R34_NE REUNION_R34_SE REUNION_R34_SW REUNION_R34_NW REUNION_R50_NE REUNION_R50_SE REUNION_R50_SW REUNION_R50_NW REUNION_R64_NE REUNION_R64_SE REUNION_R64_SW REUNION_R64_NW BOM_LAT BOM_LON BOM_TYPE BOM_WIND BOM_PRES BOM_TNUM BOM_CI BOM_RMW BOM_R34_NE BOM_R34_SE BOM_R34_SW BOM_R34_NW BOM_R50_NE BOM_R50_SE BOM_R50_SW BOM_R50_NW BOM_R64_NE BOM_R64_SE BOM_R64_SW BOM_R64_NW BOM_ROCI BOM_POCI BOM_EYE BOM_POS_METHOD BOM_PRES_METHOD NADI_LAT NADI_LON NADI_CAT NADI_WIND NADI_PRES WELLINGTON_LAT WELLINGTON_LON WELLINGTON_WIND WELLINGTON_PRES DS824_LAT DS824_LON DS824_STAGE DS824_WIND DS824_PRES TD9636_LAT TD9636_LON TD9636_STAGE TD9636_WIND TD9636_PRES TD9635_LAT TD9635_LON TD9635_WIND TD9635_PRES TD9635_ROCI NEUMANN_LAT NEUMANN_LON NEUMANN_CLASS NEUMANN_WIND NEUMANN_PRES MLC_LAT MLC_LON MLC_CLASS MLC_WIND MLC_PRES USA_GUST BOM_GUST BOM_GUST_PER REUNION_GUST REUNION_GUST_PER USA_SEAHGT USA_SEARAD_NE USA_SEARAD_SE USA_SEARAD_SW USA_SEARAD_NW STORM_SPEED STORM_DIR
1996272N16250 1996 90 EP MM GENEVIEVE 1996-09-27 18:00:00 TS 16.3000 -110.000 30 1008 hurdat_epa main 625 625 O_____________ hurdat_epa EP101996 16.3000 -110.000 TD 30 1008 -1 10 267
1996272N16250 1996 90 EP MM GENEVIEVE 1996-09-27 21:00:00 TS 16.2728 -110.507 main 668 668 P_____________ EP101996 16.2728 -110.507 TD 32 1006 -1 10 264
1996272N16250 1996 90 EP MM GENEVIEVE 1996-09-28 00:00:00 TS 16.2000 -111.000 35 1005 hurdat_epa main 718 718 O_____________ hurdat_epa EP101996 16.2000 -111.000 TS 35 1005 0 9 257
1996272N16250 1996 90 EP MM GENEVIEVE 1996-09-28 03:00:00 TS 16.0574 -111.465 main 769 769 P_____________ EP101996 16.0574 -111.465 TS 37 1004 0 9 251
1996272N16250 1996 90 EP MM GENEVIEVE 1996-09-28 06:00:00 TS 15.9000 -111.900 40 1003 hurdat_epa main 807 807 O_____________ hurdat_epa EP101996 15.9000 -111.900 TS 40 1003 0 8 252
1996272N16250 1996 90 EP MM GENEVIEVE 1996-09-28 09:00:00 TS 15.7998 -112.300 main 829 829 P_____________ EP101996 15.7998 -112.300 TS 40 1002 0 8 255
1996272N16250 1996 90 EP MM GENEVIEVE 1996-09-28 12:00:00 TS 15.7000 -112.700 40 1001 hurdat_epa main 853 853 O_____________ hurdat_epa EP101996 15.7000 -112.700 TS 40 1001 0 9 253
1996272N16250 1996 90 EP MM GENEVIEVE 1996-09-28 15:00:00 TS 15.5500 -113.143 main 889 889 P_____________ EP101996 15.5500 -113.143 TS 42 1000 0 9 251
1996272N16250 1996 90 EP MM GENEVIEVE 1996-09-28 18:00:00 TS 15.4000 -113.600 45 1000 hurdat_epa main 920 920 O_____________ hurdat_epa EP101996 15.4000 -113.600 TS 45 1000 0 9 253
1996272N16250 1996 90 EP MM GENEVIEVE 1996-09-28 21:00:00 TS 15.2850 -114.065 main 952 952 P_____________ EP101996 15.2850 -114.065 TS 45 1000 0 9 257
1996272N16250 1996 90 EP MM GENEVIEVE 1996-09-29 00:00:00 TS 15.2000 -114.500 45 1000 hurdat_epa main 982 982 O_____________ hurdat_epa EP101996 15.2000 -114.500 TS 45 1000 0 8 259
1996272N16250 1996 90 EP MM GENEVIEVE 1996-09-29 03:00:00 TS 15.1349 -114.872 main 1013 1013 P_____________ EP101996 15.1349 -114.872 TS 45 1000 0 7 262
1996272N16250 1996 90 EP MM GENEVIEVE 1996-09-29 06:00:00 TS 15.1000 -115.200 45 1000 hurdat_epa main 1029 1029 O_____________ hurdat_epa EP101996 15.1000 -115.200 TS 45 1000 0 6 265
1996272N16250 1996 90 EP MM GENEVIEVE 1996-09-29 09:00:00 TS 15.0775 -115.515 main 1046 1046 P_____________ EP101996 15.0775 -115.515 TS 45 999 0 6 270
1996272N16250 1996 90 EP MM GENEVIEVE 1996-09-29 12:00:00 TS 15.1000 -115.800 45 999 hurdat_epa main 1064 1064 O_____________ hurdat_epa EP101996 15.1000 -115.800 TS 45 999 0 6 281
1996272N16250 1996 90 EP MM GENEVIEVE 1996-09-29 15:00:00 TS 15.1850 -116.080 main 1073 1070 P_____________ EP101996 15.1850 -116.080 TS 45 999 0 5 292
1996272N16250 1996 90 EP MM GENEVIEVE 1996-09-29 18:00:00 TS 15.3000 -116.300 45 1000 hurdat_epa main 1077 1074 O_____________ hurdat_epa EP101996 15.3000 -116.300 TS 45 1000 0 4 303
1996272N16250 1996 90 EP MM GENEVIEVE 1996-09-29 21:00:00 TS 15.4075 -116.430 main 1074 1072 P_____________ EP101996 15.4075 -116.430 TS 45 1000 0 3 316
1996272N16250 1996 90 EP MM GENEVIEVE 1996-09-30 00:00:00 TS 15.5000 -116.500 45 1000 hurdat_epa main 1072 1070 O_____________ hurdat_epa EP101996 15.5000 -116.500 TS 45 1000 0 2 321
1996272N16250 1996 90 EP MM GENEVIEVE 1996-09-30 03:00:00 TS 15.5575 -116.558 main 1070 1070 P_____________ EP101996 15.5575 -116.558 TS 42 1001 0 1 317
1996272N16250 1996 90 EP MM GENEVIEVE 1996-09-30 06:00:00 TS 15.6000 -116.600 40 1003 hurdat_epa main 1070 1070 O_____________ hurdat_epa EP101996 15.6000 -116.600 TS 40 1003 0 1 321
1996272N16250 1996 90 EP MM GENEVIEVE 1996-09-30 09:00:00 TS 15.6500 -116.643 main 1061 1061 P_____________ EP101996 15.6500 -116.643 TS 37 1004 0 1 317
1996272N16250 1996 90 EP MM GENEVIEVE 1996-09-30 12:00:00 TS 15.7000 -116.700 35 1005 hurdat_epa main 1068 1068 O_____________ hurdat_epa EP101996 15.7000 -116.700 TS 35 1005 0 2 302
1996272N16250 1996 90 EP MM GENEVIEVE 1996-09-30 15:00:00 TS 15.7425 -116.800 main 1075 1067 P_____________ EP101996 15.7425 -116.800 TS 35 1005 0 2 297
1996272N16250 1996 90 EP MM GENEVIEVE 1996-09-30 18:00:00 TS 15.8000 -116.900 35 1005 hurdat_epa main 1074 1065 O_____________ hurdat_epa EP101996 15.8000 -116.900 TS 35 1005 0 2 316
1996272N16250 1996 90 EP MM GENEVIEVE 1996-09-30 21:00:00 TS 15.9000 -116.957 main 1072 1064 P_____________ EP101996 15.9000 -116.958 TS 32 1005 -1 2 333
1996272N16250 1996 90 EP MM GENEVIEVE 1996-10-01 00:00:00 TS 16.0000 -117.000 30 1006 hurdat_epa main 1064 1056 O_____________ hurdat_epa EP101996 16.0000 -117.000 TD 30 1006 -1 2 330
1996272N16250 1996 90 EP MM GENEVIEVE 1996-10-01 03:00:00 TS 16.0575 -117.050 main 1063 1063 P_____________ EP101996 16.0575 -117.050 TD 30 1006 -1 1 317
1996272N16250 1996 90 EP MM GENEVIEVE 1996-10-01 06:00:00 TS 16.1000 -117.100 30 1007 hurdat_epa main 1063 1063 O_____________ hurdat_epa EP101996 16.1000 -117.100 TD 30 1007 -1 1 318
1996272N16250 1996 90 EP MM GENEVIEVE 1996-10-01 09:00:00 TS 16.1500 -117.143 main 1055 1055 P_____________ EP101996 16.1500 -117.143 TD 30 1007 -1 1 317
1996272N16250 1996 90 EP MM GENEVIEVE 1996-10-01 12:00:00 TS 16.2000 -117.200 30 1008 hurdat_epa main 1062 1062 O_____________ hurdat_epa EP101996 16.2000 -117.200 TD 30 1008 -1 2 305
1996272N16250 1996 90 EP MM GENEVIEVE 1996-10-01 15:00:00 TS 16.2500 -117.293 main 1062 1062 P_____________ EP101996 16.2500 -117.293 TD 30 1008 -1 2 297
1996272N16250 1996 90 EP MM GENEVIEVE 1996-10-01 18:00:00 TS 16.3000 -117.400 30 1009 hurdat_epa main 1069 1069 O_____________ hurdat_epa EP101996 16.3000 -117.400 TD 30 1009 -1 2 303
1996272N16250 1996 90 EP MM GENEVIEVE 1996-10-01 21:00:00 TS 16.3649 -117.477 main 1069 1069 P_____________ EP101996 16.3649 -117.477 TD 27 1009 -1 2 297
1996272N16250 1996 90 EP MM GENEVIEVE 1996-10-02 00:00:00 TS 16.4000 -117.600 25 1009 hurdat_epa main 1077 1077 O_____________ hurdat_epa EP101996 16.4000 -117.600 TD 25 1009 -1 3 274
1996272N16250 1996 90 EP MM GENEVIEVE 1996-10-02 03:00:00 TS 16.3875 -117.820 main 1092 1092 P_____________ EP101996 16.3875 -117.820 TD 25 1009 -1 5 258
1996272N16250 1996 90 EP MM GENEVIEVE 1996-10-02 06:00:00 TS 16.3000 -118.100 25 1009 hurdat_epa main 1124 1124 O_____________ hurdat_epa EP101996 16.3000 -118.100 TD 25 1009 -1 6 246
1996272N16250 1996 90 EP MM GENEVIEVE 1996-10-02 09:00:00 TS 16.1375 -118.392 main 1162 1162 P_____________ EP101996 16.1375 -118.392 TD 25 1009 -1 7 235
1996272N16250 1996 90 EP MM GENEVIEVE 1996-10-02 12:00:00 TS 15.9000 -118.700 25 1009 hurdat_epa main 1200 1200 O_____________ hurdat_epa EP101996 15.9000 -118.700 TD 25 1009 -1 8 227
1996272N16250 1996 90 EP MM GENEVIEVE 1996-10-02 15:00:00 TS 15.5924 -118.993 main 1246 1246 P_____________ EP101996 15.5924 -118.993 TD 25 1009 -1 8 224
1996272N16250 1996 90 EP MM GENEVIEVE 1996-10-02 18:00:00 TS 15.3000 -119.300 25 1009 hurdat_epa main 1292 1292 O_____________ hurdat_epa EP101996 15.3000 -119.300 TD 25 1009 -1 8 234
1996272N16250 1996 90 EP MM GENEVIEVE 1996-10-02 21:00:00 TS 15.0976 -119.688 main 1334 1334 P_____________ EP101996 15.0976 -119.688 TD 25 1009 -1 7 246
1996272N16250 1996 90 EP MM GENEVIEVE 1996-10-03 00:00:00 TS 15.0000 -120.000 25 1009 hurdat_epa main 1362 1362 O_____________ hurdat_epa EP101996 15.0000 -120.000 TD 25 1009 -1 4 258
1996272N16250 1996 90 EP MM GENEVIEVE 1996-10-03 03:00:00 TS 15.0124 -120.095 main 1369 1360 P_____________ EP101996 15.0124 -120.095 TD 25 1009 -1 1 317
1996272N16250 1996 90 EP MM GENEVIEVE 1996-10-03 06:00:00 TS 15.1000 -120.100 25 1009 hurdat_epa main 1360 1351 O_____________ hurdat_epa EP101996 15.1000 -120.100 TD 25 1009 -1 2 341
1996272N16250 1996 90 EP MM GENEVIEVE 1996-10-03 09:00:00 TS 15.2000 -120.165 main 1357 1348 P_____________ EP101996 15.2000 -120.165 TD 25 1009 -1 2 333
1996272N16250 1996 90 EP MM GENEVIEVE 1996-10-03 12:00:00 TS 15.3000 -120.200 25 1009 hurdat_epa main 1348 1339 O_____________ hurdat_epa EP101996 15.3000 -120.200 TD 25 1009 -1 2 354
1996272N16250 1996 90 EP MM GENEVIEVE 1996-10-03 15:00:00 TS 15.3575 -120.165 main 1339 1333 P_____________ EP101996 15.3575 -120.165 TD 25 1009 -1 1 43
1996272N16250 1996 90 EP MM GENEVIEVE 1996-10-03 18:00:00 TS 15.4000 -120.100 25 1009 hurdat_epa main 1333 1324 O_____________ hurdat_epa EP101996 15.4000 -120.100 TD 25 1009 -1 1 45
1996272N16250 1996 90 EP MM GENEVIEVE 1996-10-03 21:00:00 TS 15.4575 -120.058 main 1324 1317 P_____________ EP101996 15.4575 -120.058 TD 22 1009 -1 1 43
1996272N16250 1996 90 EP MM GENEVIEVE 1996-10-04 00:00:00 TS 15.5000 -120.000 20 1010 hurdat_epa main 1317 1311 O_____________ hurdat_epa EP101996 15.5000 -120.000 TD 20 1010 -1 2 69
1996272N16250 1996 90 EP MM GENEVIEVE 1996-10-04 03:00:00 TS 15.5150 -119.900 main 1311 1305 P_____________ EP101996 15.5150 -119.900 TD 20 1010 -1 2 90
1996272N16250 1996 90 EP MM GENEVIEVE 1996-10-04 06:00:00 TS 15.5000 -119.800 20 1010 hurdat_epa main 1305 1305 O_____________ hurdat_epa EP101996 15.5000 -119.800 TD 20 1010 -1 2 114
1996272N16250 1996 90 EP MM GENEVIEVE 1996-10-04 09:00:00 TS 15.4500 -119.750 main 1307 1307 P_____________ EP101996 15.4500 -119.750 TD 20 1010 -1 1 137
1996272N16250 1996 90 EP MM GENEVIEVE 1996-10-04 12:00:00 TS 15.4000 -119.700 20 1010 hurdat_epa main 1307 1301 O_____________ hurdat_epa EP101996 15.4000 -119.700 TD 20 1010 -1 1 110
1996272N16250 1996 90 EP MM GENEVIEVE 1996-10-04 15:00:00 TS 15.4000 -119.608 main 1301 1295 P_____________ EP101996 15.4000 -119.608 TD 22 1010 -1 2 90
1996272N16250 1996 90 EP MM GENEVIEVE 1996-10-04 18:00:00 TS 15.4000 -119.500 25 1010 hurdat_epa main 1295 1288 O_____________ hurdat_epa EP101996 15.4000 -119.500 TD 25 1010 -1 2 107
1996272N16250 1996 90 EP MM GENEVIEVE 1996-10-04 21:00:00 TS 15.3425 -119.407 main 1298 1292 P_____________ EP101996 15.3425 -119.407 TD 27 1009 -1 2 117
1996272N16250 1996 90 EP MM GENEVIEVE 1996-10-05 00:00:00 TS 15.3000 -119.300 30 1009 hurdat_epa main 1292 1285 O_____________ hurdat_epa EP101996 15.3000 -119.300 TD 30 1009 -1 2 92
1996272N16250 1996 90 EP MM GENEVIEVE 1996-10-05 03:00:00 TS 15.3350 -119.158 main 1285 1263 P_____________ EP101996 15.3350 -119.158 TD 30 1009 -1 3 71
1996272N16250 1996 90 EP MM GENEVIEVE 1996-10-05 06:00:00 TS 15.4000 -119.000 30 1009 hurdat_epa main 1263 1255 O_____________ hurdat_epa EP101996 15.4000 -119.000 TD 30 1009 -1 3 68
1996272N16250 1996 90 EP MM GENEVIEVE 1996-10-05 09:00:00 TS 15.4500 -118.857 main 1255 1232 P_____________ EP101996 15.4500 -118.857 TD 30 1009 -1 3 71
1996272N16250 1996 90 EP MM GENEVIEVE 1996-10-05 12:00:00 TS 15.5000 -118.700 30 1009 hurdat_epa main 1232 1216 O_____________ hurdat_epa EP101996 15.5000 -118.700 TD 30 1009 -1 4 74
1996272N16250 1996 90 EP MM GENEVIEVE 1996-10-05 15:00:00 TS 15.5500 -118.500 main 1208 1193 P_____________ EP101996 15.5500 -118.500 TD 30 1009 -1 4 75
1996272N16250 1996 90 EP MM GENEVIEVE 1996-10-05 18:00:00 TS 15.6000 -118.300 30 1009 hurdat_epa main 1193 1178 O_____________ hurdat_epa EP101996 15.6000 -118.300 TD 30 1009 -1 4 75
1996272N16250 1996 90 EP MM GENEVIEVE 1996-10-05 21:00:00 TS 15.6425 -118.135 main 1178 1162 P_____________ EP101996 15.6425 -118.135 TD 30 1008 -1 3 71
1996272N16250 1996 90 EP MM GENEVIEVE 1996-10-06 00:00:00 TS 15.7000 -118.000 30 1008 hurdat_epa main 1162 1147 O_____________ hurdat_epa EP101996 15.7000 -118.000 TD 30 1008 -1 3 57
1996272N16250 1996 90 EP MM GENEVIEVE 1996-10-06 03:00:00 TS 15.7925 -117.892 main 1147 1131 P_____________ EP101996 15.7925 -117.893 TD 30 1007 -1 3 44
1996272N16250 1996 90 EP MM GENEVIEVE 1996-10-06 06:00:00 TS 15.9000 -117.800 30 1007 hurdat_epa main 1131 1116 O_____________ hurdat_epa EP101996 15.9000 -117.800 TD 30 1007 -1 3 43
1996272N16250 1996 90 EP MM GENEVIEVE 1996-10-06 09:00:00 TS 16.0000 -117.693 main 1116 1100 P_____________ EP101996 16.0000 -117.693 TD 30 1006 -1 3 44
1996272N16250 1996 90 EP MM GENEVIEVE 1996-10-06 12:00:00 TS 16.1000 -117.600 30 1006 hurdat_epa main 1100 1085 O_____________ hurdat_epa EP101996 16.1000 -117.600 TD 30 1006 -1 2 39
1996272N16250 1996 90 EP MM GENEVIEVE 1996-10-06 15:00:00 TS 16.1925 -117.535 main 1085 1077 P_____________ EP101996 16.1925 -117.535 TD 32 1005 -1 2 27
1996272N16250 1996 90 EP MM GENEVIEVE 1996-10-06 18:00:00 TS 16.3000 -117.500 35 1005 hurdat_epa main 1077 1069 O_____________ hurdat_epa EP101996 16.3000 -117.500 TS 35 1005 0 3 7
1996272N16250 1996 90 EP MM GENEVIEVE 1996-10-06 21:00:00 TS 16.4500 -117.485 main 1062 1054 P_____________ EP101996 16.4500 -117.485 TS 37 1005 0 3 0
1996272N16250 1996 90 EP MM GENEVIEVE 1996-10-07 00:00:00 TS 16.6000 -117.500 40 1005 hurdat_epa main 1054 1046 O_____________ hurdat_epa EP101996 16.6000 -117.500 TS 40 1005 0 3 349
1996272N16250 1996 90 EP MM GENEVIEVE 1996-10-07 03:00:00 TS 16.7075 -117.543 main 1046 1046 P_____________ EP101996 16.7075 -117.542 TS 40 1004 0 2 333
1996272N16250 1996 90 EP MM GENEVIEVE 1996-10-07 06:00:00 TS 16.8000 -117.600 40 1004 hurdat_epa main 1047 1039 O_____________ hurdat_epa EP101996 16.8000 -117.600 TS 40 1004 0 2 333
1996272N16250 1996 90 EP MM GENEVIEVE 1996-10-07 09:00:00 TS 16.9075 -117.643 main 1039 1038 P_____________ EP101996 16.9075 -117.643 TS 40 1003 0 2 333
1996272N16250 1996 90 EP MM GENEVIEVE 1996-10-07 12:00:00 TS 17.0000 -117.700 40 1003 hurdat_epa main 1038 1035 O_____________ hurdat_epa EP101996 17.0000 -117.700 TS 40 1003 0 2 321
1996272N16250 1996 90 EP MM GENEVIEVE 1996-10-07 15:00:00 TS 17.0725 -117.785 main 1035 1035 P_____________ EP101996 17.0725 -117.785 TS 40 1003 0 2 298
1996272N16250 1996 90 EP MM GENEVIEVE 1996-10-07 18:00:00 TS 17.1000 -117.900 40 1003 hurdat_epa main 1041 1041 O_____________ hurdat_epa EP101996 17.1000 -117.900 TS 40 1003 0 2 274
1996272N16250 1996 90 EP MM GENEVIEVE 1996-10-07 21:00:00 TS 17.0875 -118.035 main 1047 1047 P_____________ EP101996 17.0875 -118.035 TS 37 1003 0 3 251
1996272N16250 1996 90 EP MM GENEVIEVE 1996-10-08 00:00:00 TS 17.0000 -118.200 35 1004 hurdat_epa main 1068 1068 O_____________ hurdat_epa EP101996 17.0000 -118.200 TS 35 1004 0 4 232
1996272N16250 1996 90 EP MM GENEVIEVE 1996-10-08 03:00:00 TS 16.8300 -118.385 main 1099 1099 P_____________ EP101996 16.8300 -118.385 TS 35 1004 0 6 224
1996272N16250 1996 90 EP MM GENEVIEVE 1996-10-08 06:00:00 TS 16.6000 -118.600 35 1005 hurdat_epa main 1129 1129 O_____________ hurdat_epa EP101996 16.6000 -118.600 TS 35 1005 0 6 222
1996272N16250 1996 90 EP MM GENEVIEVE 1996-10-08 09:00:00 TS 16.3724 -118.820 main 1160 1160 P_____________ EP101996 16.3724 -118.820 TS 32 1005 -1 7 224
1996272N16250 1996 90 EP MM GENEVIEVE 1996-10-08 12:00:00 TS 16.1000 -119.100 30 1006 hurdat_epa main 1206 1206 O_____________ hurdat_epa EP101996 16.1000 -119.100 TD 30 1006 -1 9 225
1996272N16250 1996 90 EP MM GENEVIEVE 1996-10-08 15:00:00 TS 15.7575 -119.470 main 1258 1258 P_____________ EP101996 15.7575 -119.470 TD 27 1006 -1 10 228
1996272N16250 1996 90 EP MM GENEVIEVE 1996-10-08 18:00:00 TS 15.4000 -119.900 25 1007 hurdat_epa main 1320 1320 O_____________ hurdat_epa EP101996 15.4000 -119.900 TD 25 1007 -1 11 232
1996272N16250 1996 90 EP MM GENEVIEVE 1996-10-08 21:00:00 TS 15.0852 -120.348 main 1373 1373 P_____________ EP101996 15.0852 -120.348 TD 25 1007 -1 11 235
1996272N16250 1996 90 EP MM GENEVIEVE 1996-10-09 00:00:00 TS 14.8000 -120.800 25 1008 hurdat_epa main 1432 O_____________ hurdat_epa EP101996 14.8000 -120.800 TD 25 1008 -1 10 237

IBTrACS Databaseについて

本データベースは、米国NOAAが公開する1842年以降の世界の熱帯低気圧のベストトラックデータアーカイブInternational Best Track Archive for Climate Stewardship (IBTrACS)を、ウェブで閲覧しやすい形式に変換したものです。

最終更新日:2021-11-26